createdAt,value
2019-03-22T00:01:52.152Z,35.17
2019-03-22T00:04:22.692Z,39.30
2019-03-22T00:06:55.021Z,30.10
2019-03-22T00:09:25.478Z,41.73
2019-03-22T00:11:55.844Z,35.23
2019-03-22T00:14:26.229Z,34.90
2019-03-22T00:16:56.553Z,32.60
2019-03-22T00:19:27.561Z,34.03
2019-03-22T00:21:57.919Z,30.30
2019-03-22T00:24:28.488Z,35.57
2019-03-22T00:27:01.198Z,28.60
2019-03-22T00:29:30.638Z,35.17
2019-03-22T00:32:00.999Z,38.57
2019-03-22T00:34:30.363Z,40.90
2019-03-22T00:37:00.829Z,38.30
2019-03-22T00:39:33.391Z,30.27
2019-03-22T00:42:05.964Z,33.83
2019-03-22T00:44:36.027Z,35.27
2019-03-22T00:47:06.504Z,37.40
2019-03-22T00:49:37.102Z,36.53
2019-03-22T00:52:09.008Z,36.17
2019-03-22T00:54:39.579Z,42.00
2019-03-22T00:57:10.151Z,39.90
2019-03-22T00:59:40.717Z,34.07
2019-03-22T01:02:14.016Z,39.43
2019-03-22T01:04:44.740Z,34.33
2019-03-22T01:07:22.934Z,36.13
2019-03-22T01:09:53.584Z,39.47
2019-03-22T01:12:25.853Z,41.00
2019-03-22T01:14:55.397Z,40.43
2019-03-22T01:17:25.799Z,32.90
2019-03-22T01:19:58.218Z,35.50
2019-03-22T01:22:30.199Z,36.17
2019-03-22T01:25:02.934Z,38.23
2019-03-22T01:27:40.494Z,36.03
2019-03-22T01:30:09.075Z,38.83
2019-03-22T01:32:43.694Z,36.83
2019-03-22T01:35:14.664Z,34.53
2019-03-22T01:37:46.216Z,36.50
2019-03-22T01:40:17.359Z,32.30
2019-03-22T01:42:48.890Z,33.73
2019-03-22T01:45:19.291Z,33.53
2019-03-22T01:47:49.780Z,35.87
2019-03-22T01:50:20.778Z,34.67
2019-03-22T01:52:51.539Z,33.23
2019-03-22T01:55:23.961Z,30.03
2019-03-22T01:57:56.745Z,33.03
2019-03-22T02:00:27.146Z,35.73
2019-03-22T02:02:56.536Z,34.60
2019-03-22T02:05:26.918Z,38.53
2019-03-22T02:07:57.189Z,32.03
2019-03-22T02:10:27.609Z,34.53
2019-03-22T02:12:57.973Z,39.63
2019-03-22T02:15:29.769Z,37.07
2019-03-22T02:18:00.288Z,30.53
2019-03-22T02:20:30.997Z,37.73
2019-03-22T02:23:04.128Z,35.60
2019-03-22T02:25:34.552Z,29.57
2019-03-22T02:28:05.078Z,34.03
2019-03-22T02:30:35.344Z,38.87
2019-03-22T02:33:05.739Z,36.73
2019-03-22T02:35:36.018Z,30.47
2019-03-22T02:38:09.042Z,36.90
2019-03-22T02:40:39.368Z,39.63
2019-03-22T02:43:09.884Z,36.23
2019-03-22T02:45:40.307Z,36.73
2019-03-22T02:48:10.636Z,32.20
2019-03-22T02:50:40.959Z,30.47
2019-03-22T02:53:11.512Z,32.40
2019-03-22T02:55:41.789Z,26.00
2019-03-22T02:58:20.498Z,31.77
2019-03-22T03:00:45.813Z,23.87
2019-03-22T03:03:16.096Z,35.13
2019-03-22T03:05:46.418Z,27.37
2019-03-22T03:08:16.911Z,31.47
2019-03-22T03:10:47.275Z,23.00
2019-03-22T03:13:17.923Z,23.40
2019-03-22T03:15:48.126Z,20.20
2019-03-22T03:18:20.722Z,21.83
2019-03-22T03:20:50.086Z,37.33
2019-03-22T03:23:22.860Z,30.10
2019-03-22T03:25:53.478Z,34.83
2019-03-22T03:28:35.956Z,28.80
2019-03-22T03:30:57.561Z,28.80
2019-03-22T03:33:28.359Z,30.30
2019-03-22T03:35:58.766Z,33.70
2019-03-22T03:38:28.225Z,33.53
2019-03-22T03:41:02.592Z,29.07
2019-03-22T03:43:33.037Z,36.00
2019-03-22T03:46:05.583Z,27.07
2019-03-22T03:48:38.287Z,20.80
2019-03-22T03:51:13.898Z,31.97
2019-03-22T03:53:43.394Z,27.80
2019-03-22T03:56:15.084Z,25.87
2019-03-22T03:58:52.642Z,27.33
2019-03-22T04:01:21.499Z,21.60
2019-03-22T04:03:52.408Z,43.07
2019-03-22T04:06:23.042Z,24.80
2019-03-22T04:08:55.940Z,22.63
2019-03-22T04:11:26.327Z,38.00
2019-03-22T04:13:56.784Z,26.03
2019-03-22T04:16:27.253Z,34.90
2019-03-22T04:18:57.684Z,39.73
2019-03-22T04:21:28.414Z,36.33
2019-03-22T04:23:58.814Z,34.17
2019-03-22T04:26:30.711Z,40.10
2019-03-22T04:29:07.478Z,20.50
2019-03-22T04:31:33.408Z,37.10
2019-03-22T04:34:05.250Z,33.53
2019-03-22T04:36:35.719Z,24.77
2019-03-22T04:39:09.132Z,39.83
2019-03-22T04:41:39.890Z,31.60
2019-03-22T04:44:10.413Z,26.43
2019-03-22T04:46:43.413Z,30.03
2019-03-22T04:49:15.356Z,29.97
2019-03-22T04:51:46.420Z,36.43
2019-03-22T04:54:19.538Z,33.80
2019-03-22T04:56:52.297Z,28.90
2019-03-22T04:59:23.848Z,13.57
2019-03-22T05:01:56.531Z,22.03
2019-03-22T05:04:30.722Z,21.53
2019-03-22T05:07:01.677Z,25.50
2019-03-22T05:09:35.104Z,15.53
2019-03-22T05:12:06.374Z,6.53
2019-03-22T05:14:41.874Z,12.60
2019-03-22T05:17:15.990Z,12.20
2019-03-22T05:20:05.763Z,13.27
2019-03-22T05:22:44.968Z,11.50
2019-03-22T05:25:16.039Z,14.20
2019-03-22T05:27:48.909Z,15.73
2019-03-22T05:31:02.971Z,17.60
2019-03-22T05:33:33.706Z,13.27
2019-03-22T05:36:06.569Z,16.67
2019-03-22T05:38:39.481Z,15.30
2019-03-22T05:41:10.137Z,11.90
2019-03-22T05:43:45.069Z,14.47
2019-03-22T05:46:15.614Z,14.27
2019-03-22T05:48:47.133Z,16.47
2019-03-22T05:51:18.833Z,14.63
2019-03-22T05:53:49.258Z,13.40
2019-03-22T05:56:19.819Z,14.30
2019-03-22T05:58:50.552Z,16.03
2019-03-22T06:01:21.003Z,15.30
2019-03-22T06:03:51.541Z,16.10
2019-03-22T06:06:22.190Z,18.87
2019-03-22T06:09:00.249Z,15.67
2019-03-22T06:11:32.036Z,14.27
2019-03-22T06:14:03.803Z,9.80
2019-03-22T06:16:34.473Z,12.63
2019-03-22T06:19:04.228Z,14.93
2019-03-22T06:21:37.261Z,12.73
2019-03-22T06:24:10.494Z,14.40
2019-03-22T06:26:41.137Z,7.43
2019-03-22T06:29:13.086Z,9.60
2019-03-22T06:31:46.953Z,10.13
2019-03-22T06:34:17.401Z,14.57
2019-03-22T06:36:50.139Z,8.27
2019-03-22T06:39:23.557Z,11.60
2019-03-22T06:41:54.267Z,12.07
2019-03-22T06:44:27.220Z,12.00
2019-03-22T06:46:57.767Z,11.27
2019-03-22T06:49:30.695Z,13.97
2019-03-22T06:52:02.116Z,15.27
2019-03-22T06:54:32.675Z,7.70
2019-03-22T06:57:09.305Z,11.80
2019-03-22T06:59:39.745Z,12.43
2019-03-22T07:02:09.116Z,11.87
2019-03-22T07:04:41.978Z,10.40
2019-03-22T07:07:12.705Z,11.73
2019-03-22T07:09:43.122Z,13.60
2019-03-22T07:12:13.747Z,15.23
2019-03-22T07:14:45.081Z,13.20
2019-03-22T07:17:16.410Z,13.37
2019-03-22T07:19:46.596Z,12.60
2019-03-22T07:22:19.848Z,9.33
2019-03-22T07:24:57.920Z,9.30
2019-03-22T07:27:25.647Z,10.70
2019-03-22T07:29:56.256Z,9.77
2019-03-22T07:32:28.217Z,9.90
2019-03-22T07:35:01.027Z,7.17
2019-03-22T07:37:31.487Z,9.17
2019-03-22T07:40:01.945Z,8.47
2019-03-22T07:42:31.416Z,10.53
2019-03-22T07:45:02.296Z,8.63
2019-03-22T07:47:32.895Z,6.50
2019-03-22T07:50:03.419Z,5.77
2019-03-22T07:52:33.988Z,3.63
2019-03-22T07:55:05.064Z,5.03
2019-03-22T07:57:38.907Z,7.17
2019-03-22T08:00:15.822Z,7.77
2019-03-22T08:02:49.108Z,7.30
2019-03-22T08:05:19.495Z,6.93
2019-03-22T08:07:49.806Z,7.53
2019-03-22T08:10:20.096Z,8.33
2019-03-22T08:12:50.425Z,9.23
2019-03-22T08:15:31.804Z,7.70
2019-03-22T08:18:01.381Z,5.40
2019-03-22T08:20:31.108Z,6.20
2019-03-22T08:23:00.930Z,9.83
2019-03-22T08:25:32.558Z,10.03
2019-03-22T08:28:03.191Z,13.17
2019-03-22T08:30:42.481Z,6.50
2019-03-22T08:33:07.385Z,4.27
2019-03-22T08:35:36.747Z,9.13
2019-03-22T08:38:07.091Z,6.20
2019-03-22T08:40:37.810Z,6.70
2019-03-22T08:43:09.707Z,5.87
2019-03-22T08:45:40.914Z,5.87
2019-03-22T08:48:11.258Z,4.97
2019-03-22T08:50:41.776Z,5.57
2019-03-22T08:53:12.480Z,7.27
2019-03-22T08:55:42.774Z,20.83
2019-03-22T08:58:13.438Z,8.93
2019-03-22T09:00:56.674Z,6.00
2019-03-22T09:03:16.019Z,9.30
2019-03-22T09:05:46.386Z,9.47
2019-03-22T09:08:16.677Z,6.33
2019-03-22T09:10:47.097Z,6.13
2019-03-22T09:13:16.433Z,6.43
2019-03-22T09:15:46.772Z,13.17
2019-03-22T09:18:19.915Z,6.23
2019-03-22T09:20:50.277Z,5.30
2019-03-22T09:23:20.814Z,5.70
2019-03-22T09:25:51.108Z,5.80
2019-03-22T09:28:21.534Z,6.57
2019-03-22T09:30:52.014Z,4.87
2019-03-22T09:33:22.390Z,5.03
2019-03-22T09:35:52.680Z,3.80
2019-03-22T09:38:24.027Z,4.33
2019-03-22T09:40:54.372Z,2.33
2019-03-22T09:43:24.605Z,10.03
2019-03-22T09:45:54.845Z,19.27
2019-03-22T09:48:25.061Z,4.57
2019-03-22T09:50:55.330Z,6.50
2019-03-22T09:53:25.872Z,5.13
2019-03-22T09:55:56.255Z,6.63
2019-03-22T09:58:26.638Z,3.67
2019-03-22T10:00:57.066Z,6.90
2019-03-22T10:03:26.460Z,6.13
2019-03-22T10:05:56.827Z,3.80
2019-03-22T10:08:27.199Z,3.80
2019-03-22T10:10:57.439Z,4.80
2019-03-22T10:13:27.815Z,6.00
2019-03-22T10:15:58.158Z,4.30
2019-03-22T10:18:28.494Z,6.13
2019-03-22T10:20:58.949Z,6.43
2019-03-22T10:23:29.141Z,4.43
2019-03-22T10:25:59.511Z,4.07
2019-03-22T10:28:31.340Z,4.87
2019-03-22T10:31:01.752Z,4.17
2019-03-22T10:33:32.149Z,4.90
2019-03-22T10:36:03.958Z,3.50
2019-03-22T10:38:34.243Z,3.47
2019-03-22T10:41:04.598Z,4.67
2019-03-22T10:43:34.835Z,2.80
2019-03-22T10:46:07.861Z,6.80
2019-03-22T10:48:36.021Z,4.27
2019-03-22T10:51:06.344Z,6.50
2019-03-22T10:53:36.622Z,3.40
2019-03-22T10:56:07.291Z,6.67
2019-03-22T10:58:37.637Z,5.37
2019-03-22T11:01:08.693Z,4.70
2019-03-22T11:03:39.486Z,3.83
2019-03-22T11:06:09.885Z,2.50
2019-03-22T11:08:40.517Z,5.23
2019-03-22T11:11:10.766Z,3.00
2019-03-22T11:13:41.051Z,5.17
2019-03-22T11:16:11.742Z,3.47
2019-03-22T11:18:44.640Z,4.67
2019-03-22T11:21:14.921Z,4.70
2019-03-22T11:23:45.175Z,7.03
2019-03-22T11:26:15.608Z,5.43
2019-03-22T11:28:44.922Z,6.23
2019-03-22T11:31:15.125Z,8.33
2019-03-22T11:33:45.414Z,7.67
2019-03-22T11:36:15.645Z,6.73
2019-03-22T11:38:45.910Z,6.97
2019-03-22T11:41:16.221Z,7.13
2019-03-22T11:43:46.802Z,8.50
2019-03-22T11:46:16.966Z,7.93
2019-03-22T11:48:46.615Z,6.13
2019-03-22T11:51:17.066Z,7.63
2019-03-22T11:53:47.317Z,5.60
2019-03-22T11:56:17.775Z,6.40
2019-03-22T11:58:48.245Z,3.40
2019-03-22T12:01:21.278Z,3.63
2019-03-22T12:03:49.563Z,8.70
2019-03-22T12:06:19.870Z,5.97
2019-03-22T12:08:50.308Z,6.87
2019-03-22T12:11:20.776Z,5.67
2019-03-22T12:13:51.059Z,4.93
2019-03-22T12:16:21.398Z,5.27
2019-03-22T12:18:53.041Z,6.07
2019-03-22T12:21:23.392Z,4.73
2019-03-22T12:23:56.350Z,4.67
2019-03-22T12:26:47.064Z,4.30
2019-03-22T12:29:17.690Z,6.20
2019-03-22T12:31:48.165Z,5.60
2019-03-22T12:34:18.560Z,4.90
2019-03-22T12:36:49.016Z,6.20
2019-03-22T12:39:19.411Z,5.93
2019-03-22T12:41:59.565Z,6.00
2019-03-22T12:44:30.069Z,6.67
2019-03-22T12:47:02.223Z,5.37
2019-03-22T12:49:33.215Z,8.30
2019-03-22T12:52:03.713Z,4.63
2019-03-22T12:54:36.476Z,4.63
2019-03-22T12:57:09.615Z,4.63
2019-03-22T12:59:40.005Z,7.93
2019-03-22T13:02:10.535Z,9.17
2019-03-22T13:04:40.891Z,7.63
2019-03-22T13:07:12.428Z,6.57
2019-03-22T13:09:42.671Z,7.43
2019-03-22T13:12:13.232Z,8.60
2019-03-22T13:14:45.879Z,4.93
2019-03-22T13:19:52.167Z,6.83
2019-03-22T13:22:22.589Z,6.40
2019-03-22T13:24:55.901Z,6.47
2019-03-22T13:27:26.268Z,7.07
2019-03-22T13:29:56.830Z,7.87
2019-03-22T13:32:27.283Z,7.45
2019-03-22T13:34:57.671Z,5.47
2019-03-22T13:37:28.091Z,3.40
2019-03-22T13:39:57.637Z,6.15
2019-03-22T13:42:26.993Z,4.58
2019-03-22T13:44:57.571Z,5.05
2019-03-22T13:47:27.928Z,3.52
2019-03-22T13:49:57.457Z,5.10
2019-03-22T13:52:27.948Z,7.97
2019-03-22T13:54:58.440Z,9.30
2019-03-22T13:57:28.879Z,4.87
2019-03-22T13:59:59.256Z,3.75
2019-03-22T14:02:29.696Z,7.33
2019-03-22T14:05:01.814Z,4.42
2019-03-22T14:07:31.298Z,9.35
2019-03-22T14:10:01.699Z,5.08
2019-03-22T14:12:36.948Z,7.75
2019-03-22T14:15:04.578Z,7.08
2019-03-22T14:17:35.167Z,7.30
2019-03-22T14:20:11.086Z,9.33
2019-03-22T14:22:38.988Z,10.78
2019-03-22T14:25:11.573Z,10.55
2019-03-22T14:27:41.986Z,10.65
2019-03-22T14:30:12.559Z,7.87
2019-03-22T14:32:44.590Z,9.83
2019-03-22T14:35:13.890Z,9.68
2019-03-22T14:37:44.183Z,7.17
2019-03-22T14:40:15.810Z,7.55
2019-03-22T14:42:45.449Z,7.55
2019-03-22T14:45:15.967Z,6.27
2019-03-22T14:47:46.249Z,7.83
2019-03-22T14:50:16.733Z,5.90
2019-03-22T14:52:46.978Z,9.48
2019-03-22T14:55:17.582Z,15.72
2019-03-22T14:57:49.261Z,13.80
2019-03-22T15:00:18.923Z,6.80
2019-03-22T15:02:49.170Z,6.70
2019-03-22T15:05:19.502Z,9.43
2019-03-22T15:07:48.889Z,10.63
2019-03-22T15:10:19.218Z,5.90
2019-03-22T15:12:49.548Z,7.05
2019-03-22T15:15:38.792Z,8.58
2019-03-22T15:18:30.268Z,6.83
2019-03-22T15:21:11.973Z,13.13
2019-03-22T15:24:03.686Z,9.63
2019-03-22T15:27:01.466Z,8.20
2019-03-22T15:29:59.306Z,5.85
2019-03-22T15:32:37.477Z,8.65
2019-03-22T15:35:36.084Z,9.88
2019-03-22T15:38:25.267Z,9.43
2019-03-22T15:40:55.679Z,8.90
2019-03-22T15:43:26.152Z,6.30
2019-03-22T15:45:57.571Z,7.90
2019-03-22T15:48:27.942Z,10.13
2019-03-22T15:50:58.226Z,12.47
2019-03-22T15:53:28.550Z,9.05
2019-03-22T15:55:58.842Z,10.58
2019-03-22T15:58:28.591Z,10.82
2019-03-22T16:00:58.854Z,11.10
2019-03-22T16:03:29.248Z,7.55
2019-03-22T16:05:59.552Z,10.70
2019-03-22T16:08:29.914Z,8.60
2019-03-22T16:11:01.497Z,11.90
2019-03-22T16:13:31.802Z,8.33
2019-03-22T16:16:02.482Z,9.93
2019-03-22T16:18:33.173Z,10.80
2019-03-22T16:21:04.246Z,9.23
2019-03-22T16:23:34.614Z,10.80
2019-03-22T16:26:05.092Z,11.77
2019-03-22T16:28:35.294Z,10.70
2019-03-22T16:31:05.839Z,11.77
2019-03-22T16:33:36.071Z,11.53
2019-03-22T16:36:06.365Z,9.43
2019-03-22T16:38:36.916Z,11.60
2019-03-22T16:41:06.248Z,11.63
2019-03-22T16:43:35.545Z,10.43
2019-03-22T16:46:05.850Z,8.10
2019-03-22T16:48:36.262Z,8.80
2019-03-22T16:51:06.736Z,9.53
2019-03-22T16:53:37.404Z,10.57
2019-03-22T16:56:07.703Z,8.13
2019-03-22T16:58:37.160Z,10.50
2019-03-22T17:01:07.947Z,12.23
2019-03-22T17:03:37.390Z,9.70
2019-03-22T17:06:07.730Z,14.30
2019-03-22T17:08:38.230Z,17.03
2019-03-22T17:11:10.508Z,10.93
2019-03-22T17:13:42.199Z,12.27
2019-03-22T17:16:13.324Z,11.87
2019-03-22T17:18:43.689Z,12.90
2019-03-22T17:21:14.090Z,13.43
2019-03-22T17:23:43.492Z,14.10
2019-03-22T17:26:14.229Z,12.93
2019-03-22T17:28:48.364Z,18.43
2019-03-22T17:31:18.587Z,14.70
2019-03-22T17:33:49.041Z,14.23
2019-03-22T17:36:21.988Z,15.23
2019-03-22T17:38:52.589Z,17.30
2019-03-22T17:41:22.929Z,16.10
2019-03-22T17:43:53.618Z,15.50
2019-03-22T17:46:23.976Z,14.40
2019-03-22T17:48:54.251Z,17.63
2019-03-22T17:51:24.623Z,14.10
2019-03-22T17:53:55.262Z,17.40
2019-03-22T17:56:25.541Z,26.20
2019-03-22T17:58:58.486Z,21.07
2019-03-22T18:01:28.940Z,20.33
2019-03-22T18:03:59.479Z,19.97
2019-03-22T18:06:29.786Z,39.10
2019-03-22T18:09:00.076Z,40.50
2019-03-22T18:11:30.585Z,29.70
2019-03-22T18:14:01.033Z,33.77
2019-03-22T18:16:30.485Z,28.53
2019-03-22T18:19:03.317Z,28.40
2019-03-22T18:21:32.718Z,29.73
2019-03-22T18:24:02.093Z,51.20
2019-03-22T18:26:32.464Z,54.70
2019-03-22T18:29:02.896Z,49.60
2019-03-22T18:31:33.374Z,60.13
2019-03-22T18:34:03.758Z,62.73
2019-03-22T18:36:33.161Z,44.90
2019-03-22T18:39:06.718Z,31.40
2019-03-22T18:41:36.173Z,50.93
2019-03-22T18:44:06.526Z,36.47
2019-03-22T18:46:37.068Z,28.00
2019-03-22T18:49:07.943Z,18.40
2019-03-22T18:51:38.448Z,21.40
2019-03-22T18:54:10.153Z,30.37
2019-03-22T18:56:42.488Z,36.00
2019-03-22T18:59:15.871Z,29.67
2019-03-22T19:01:47.262Z,38.57
2019-03-22T19:04:19.207Z,34.23
2019-03-22T19:06:50.810Z,32.43
2019-03-22T19:09:22.171Z,33.70
2019-03-22T19:11:52.639Z,45.33
2019-03-22T19:14:21.991Z,39.77
2019-03-22T19:16:52.614Z,47.20
2019-03-22T19:19:25.693Z,39.53
2019-03-22T19:21:59.313Z,33.27
2019-03-22T19:24:30.211Z,26.23
2019-03-22T19:27:00.787Z,32.77
2019-03-22T19:29:37.001Z,34.00
2019-03-22T19:32:13.377Z,30.90
2019-03-22T19:35:02.433Z,31.87
2019-03-22T19:37:33.058Z,30.30
2019-03-22T19:40:08.347Z,34.87
2019-03-22T19:42:40.311Z,30.07
2019-03-22T19:45:09.904Z,31.43
2019-03-22T19:47:40.406Z,48.03
2019-03-22T19:50:11.146Z,47.30
2019-03-22T19:55:29.397Z,48.13
2019-03-22T19:58:01.832Z,41.10
2019-03-22T20:00:32.443Z,34.43
2019-03-22T20:03:06.512Z,36.00
2019-03-22T20:05:36.155Z,31.80
2019-03-22T20:08:12.785Z,36.63
2019-03-22T20:10:42.895Z,35.03
2019-03-22T20:13:18.156Z,35.23
2019-03-22T20:15:47.600Z,37.83
2019-03-22T20:18:18.268Z,38.37
2019-03-22T20:20:51.558Z,30.80
2019-03-22T20:23:22.053Z,30.20
2019-03-22T20:25:52.786Z,42.90
2019-03-22T20:28:25.557Z,65.50
2019-03-22T20:30:58.966Z,63.50
2019-03-22T20:33:33.272Z,99.70
2019-03-22T20:36:06.236Z,98.43
2019-03-22T20:38:36.846Z,83.40
2019-03-22T20:41:07.518Z,50.67
2019-03-22T20:43:39.633Z,32.53
2019-03-22T20:46:14.128Z,34.27
2019-03-22T20:48:45.232Z,37.17
2019-03-22T20:51:15.927Z,35.07
2019-03-22T20:53:51.227Z,36.33
2019-03-22T20:56:29.046Z,35.97
2019-03-22T20:59:32.425Z,38.40
2019-03-22T21:02:08.403Z,43.10
2019-03-22T21:04:43.636Z,58.27
2019-03-22T21:07:19.501Z,65.57
2019-03-22T21:09:57.409Z,55.90
2019-03-22T21:12:28.094Z,42.87
2019-03-22T21:14:59.894Z,45.30
2019-03-22T21:17:40.653Z,49.70
2019-03-22T21:20:11.848Z,57.87
2019-03-22T21:22:43.736Z,70.83
2019-03-22T21:25:15.677Z,119.30
2019-03-22T21:27:50.348Z,91.33
2019-03-22T21:30:22.519Z,113.53
2019-03-22T21:32:53.428Z,108.93
2019-03-22T21:35:37.159Z,111.83
2019-03-22T21:38:10.342Z,108.17
2019-03-22T21:40:33.636Z,93.50
2019-03-22T21:43:17.894Z,87.60
2019-03-22T21:45:45.623Z,74.57
2019-03-22T21:48:17.520Z,78.00
2019-03-22T21:50:48.072Z,99.13
2019-03-22T21:53:20.138Z,124.33
2019-03-22T21:55:54.294Z,154.90
2019-03-22T21:58:26.490Z,117.10
2019-03-22T22:00:57.690Z,69.70
2019-03-22T22:03:31.063Z,61.63
2019-03-22T22:06:01.688Z,57.20
2019-03-22T22:08:34.134Z,58.30
2019-03-22T22:11:04.986Z,55.87
2019-03-22T22:13:35.551Z,49.17
2019-03-22T22:16:10.883Z,50.93
2019-03-22T22:18:40.333Z,50.53
2019-03-22T22:21:10.810Z,45.37
2019-03-22T22:23:42.782Z,42.00
2019-03-22T22:26:17.617Z,44.40
2019-03-22T22:28:47.962Z,43.53
2019-03-22T22:31:18.739Z,41.33
2019-03-22T22:33:50.810Z,41.30
2019-03-22T22:36:22.962Z,45.63
2019-03-22T22:38:52.257Z,39.40
2019-03-22T22:41:22.823Z,46.03
2019-03-22T22:43:53.370Z,47.00
2019-03-22T22:46:25.163Z,39.20
2019-03-22T22:48:58.169Z,45.40
2019-03-22T22:51:31.067Z,44.27
2019-03-22T22:54:01.733Z,42.93
2019-03-22T22:56:33.388Z,50.00
2019-03-22T22:59:05.124Z,51.23
2019-03-22T23:01:36.959Z,57.77
2019-03-22T23:04:07.372Z,50.70
2019-03-22T23:06:42.351Z,59.17
2019-03-22T23:09:18.004Z,52.30
2019-03-22T23:11:50.548Z,53.20
2019-03-22T23:14:20.517Z,52.83
2019-03-22T23:16:51.149Z,53.03
2019-03-22T23:19:21.548Z,50.57
2019-03-22T23:21:52.012Z,51.77
2019-03-22T23:24:22.445Z,49.50
2019-03-22T23:26:52.912Z,54.60
2019-03-22T23:29:23.179Z,62.57
2019-03-22T23:31:56.204Z,67.03
2019-03-22T23:34:26.572Z,60.40
2019-03-22T23:36:57.038Z,64.67
2019-03-22T23:39:27.599Z,64.00
2019-03-22T23:41:56.891Z,61.10
2019-03-22T23:44:27.362Z,57.27
2019-03-22T23:46:57.883Z,62.33
2019-03-22T23:49:30.562Z,57.80
2019-03-22T23:52:03.213Z,59.63
2019-03-22T23:54:33.659Z,60.13
2019-03-22T23:57:03.074Z,58.93
2019-03-22T23:59:33.490Z,60.33
